Chrysanthemum — C6XO4 — position and weather

sailwx.info

Track history (hours):
 
Tides and Currents Weather Stations Pressure Air Temp Water Temp Dewpoint Dewpoint Depression Visibility Wind Speed Wind Dir Waves Ship Positions

Chrysanthemum

Last reported at 2016-Apr-16 04:14 UTC. Time now 2016-May-28 02:05 UTC.
Position N 22°38' E 119°55'.
Warning: this ship's position is 41 days out of date.

Length 244 m; draft 12.3 m.

Type: Ship. MMSI: 311015300.

Date/timePositionNaut miles runAvg speedWind from/ knotsBaromVisibWave heightAir tempDewpointWater temp
2016-Apr-16 04:14N 22°38' E 119°55'913.0
2016-Apr-16 03:33N 22°29' E 119°55'  
2016-Apr-10 20:11N 01°15' E 104°06'1015.1
2016-Apr-10 19:33N 01°13' E 103°56'1414.1
2016-Apr-10 18:33N 01°06' E 103°44'1110.6
2016-Apr-10 17:31N 01°06' E 103°33'8 8.3
2016-Apr-10 16:32N 01°11' E 103°40'2 1.8
2016-Apr-10 15:33N 01°11' E 103°42'0 0.0
2016-Apr-10 13:09N 01°11' E 103°42'0 0.0
2016-Apr-10 09:33N 01°11' E 103°42'0 0.1
2016-Apr-10 06:30N 01°11' E 103°42'0 0.0
2016-Apr-10 05:27N 01°11' E 103°42'0 0.1
2016-Apr-10 04:33N 01°11' E 103°42'0 0.1
2016-Apr-10 03:27N 01°11' E 103°42'0 0.0
2016-Apr-10 02:33N 01°11' E 103°42'0 0.0
2016-Apr-10 01:30N 01°11' E 103°42'0 0.5
2016-Apr-10 00:33N 01°10' E 103°41'7 6.7
2016-Apr-09 23:33N 01°13' E 103°35'8 8.0
2016-Apr-09 22:33N 01°10' E 103°27'5212.5
2016-Apr-09 18:22N 01°39' E 102°44'2412.8
2016-Apr-09 16:30N 01°49' E 102°22'1313.8
2016-Apr-09 15:32N 01°56' E 102°11'  
Track history (hours):
 
Tides and Currents Weather Stations Pressure Air Temp Water Temp Dewpoint Dewpoint Depression Visibility Wind Speed Wind Dir Waves Ship Positions

Chrysanthemum

Last reported at 2016-Apr-16 04:14 UTC. Time now 2016-May-28 02:05 UTC.
Position N 22°38' E 119°55'.
Warning: this ship's position is 41 days out of date.

Length 244 m; draft 12.3 m.

Type: Ship. MMSI: 311015300.

Date/timePositionNaut miles runAvg speedWind from/ knotsBaromVisibWave heightAir tempDewpointWater temp
2016-Apr-16 04:14N 22°38' E 119°55'913.0
2016-Apr-16 03:33N 22°29' E 119°55'  
2016-Apr-10 20:11N 01°15' E 104°06'1015.1
2016-Apr-10 19:33N 01°13' E 103°56'1414.1
2016-Apr-10 18:33N 01°06' E 103°44'1110.6
2016-Apr-10 17:31N 01°06' E 103°33'8 8.3
2016-Apr-10 16:32N 01°11' E 103°40'2 1.8
2016-Apr-10 15:33N 01°11' E 103°42'0 0.0
2016-Apr-10 13:09N 01°11' E 103°42'0 0.0
2016-Apr-10 09:33N 01°11' E 103°42'0 0.1
2016-Apr-10 06:30N 01°11' E 103°42'0 0.0
2016-Apr-10 05:27N 01°11' E 103°42'0 0.1
2016-Apr-10 04:33N 01°11' E 103°42'0 0.1
2016-Apr-10 03:27N 01°11' E 103°42'0 0.0
2016-Apr-10 02:33N 01°11' E 103°42'0 0.0
2016-Apr-10 01:30N 01°11' E 103°42'0 0.5
2016-Apr-10 00:33N 01°10' E 103°41'7 6.7
2016-Apr-09 23:33N 01°13' E 103°35'8 8.0
2016-Apr-09 22:33N 01°10' E 103°27'5212.5
2016-Apr-09 18:22N 01°39' E 102°44'2412.8
2016-Apr-09 16:30N 01°49' E 102°22'1313.8
2016-Apr-09 15:32N 01°56' E 102°11'  

Dump ship's entire track history